createdAt,value
2023-01-29T00:01:28.043Z,101529.57
2023-01-29T00:04:23.796Z,101529.57
2023-01-29T00:07:39.255Z,101525.98000000001
2023-01-29T00:09:23.702Z,101525.98000000001
2023-01-29T00:12:19.924Z,101517.74
2023-01-29T00:13:08.746Z,101517.74
2023-01-29T00:14:25.323Z,101517.74
2023-01-29T00:14:50.463Z,101517.74
2023-01-29T00:16:18.726Z,101510.31
2023-01-29T00:19:23.708Z,101510.31
2023-01-29T00:21:50.613Z,101493.62999999999
2023-01-29T00:24:26.635Z,101493.62999999999
2023-01-29T00:27:14.690Z,101494.25
2023-01-29T00:29:23.621Z,101494.25
2023-01-29T00:33:12.471Z,101491.39
2023-01-29T00:34:23.622Z,101491.39
2023-01-29T00:38:57.612Z,101486.22
2023-01-29T00:39:29.374Z,101486.22
2023-01-29T00:41:15.760Z,101488.4
2023-01-29T00:44:33.559Z,101488.4
2023-01-29T00:49:23.895Z,101478.74
2023-01-29T00:54:23.685Z,101479.13
2023-01-29T00:59:23.583Z,101474.13
2023-01-29T01:01:09.788Z,101474.13
2023-01-29T01:04:23.523Z,101462.13
2023-01-29T01:06:02.423Z,101462.13
2023-01-29T01:08:53.548Z,101447.97
2023-01-29T01:09:33.541Z,101447.97
2023-01-29T01:14:13.318Z,101435.76000000001
2023-01-29T01:14:23.416Z,101435.76000000001
2023-01-29T01:19:23.777Z,101427.22
2023-01-29T01:24:23.631Z,101426.72
2023-01-29T01:26:20.339Z,101429.58
2023-01-29T01:29:14.598Z,101429.58
2023-01-29T01:29:23.699Z,101429.58
2023-01-29T01:33:25.324Z,101422.52
2023-01-29T01:34:26.068Z,101422.52
2023-01-29T01:39:24.327Z,101426.93000000001
2023-01-29T01:44:45.404Z,101426.45
2023-01-29T01:49:23.821Z,101421.34999999999
2023-01-29T01:52:23.420Z,101435.96
2023-01-29T01:54:27.989Z,101435.96
2023-01-29T01:59:23.528Z,101431.03
2023-01-29T02:04:35.659Z,101424.71
2023-01-29T02:07:04.543Z,101434.25
2023-01-29T02:09:33.467Z,101434.25
2023-01-29T02:11:55.419Z,101437.62000000001
2023-01-29T02:14:24.346Z,101437.62000000001
2023-01-29T02:19:35.567Z,101435.97
2023-01-29T02:20:43.213Z,101435.97
2023-01-29T02:24:43.536Z,101428.75
2023-01-29T02:26:44.864Z,101421.43
2023-01-29T02:29:34.364Z,101421.43
2023-01-29T02:34:12.355Z,101415.11
2023-01-29T02:34:43.157Z,101415.11
2023-01-29T02:39:33.202Z,101408.47
2023-01-29T02:41:25.039Z,101399.58
2023-01-29T02:43:23.383Z,101399.58
2023-01-29T02:44:31.923Z,101399.58
2023-01-29T02:49:31.377Z,101395.93
2023-01-29T02:54:29.691Z,101398.73999999999
2023-01-29T02:56:35.937Z,101397.31
2023-01-29T02:59:28.872Z,101397.31
2023-01-29T03:04:28.492Z,101396.98
2023-01-29T03:09:27.349Z,101386.42
2023-01-29T03:13:20.787Z,101381.08
2023-01-29T03:14:40.550Z,101381.08
2023-01-29T03:19:35.401Z,101379.06
2023-01-29T03:24:41.521Z,101377.61
2023-01-29T03:24:56.376Z,101377.61
2023-01-29T03:27:47.189Z,101373.95
2023-01-29T03:29:33.906Z,101373.95
2023-01-29T03:34:33.909Z,101375.31
2023-01-29T03:39:27.371Z,101371.37
2023-01-29T03:44:32.624Z,101375.34000000001
2023-01-29T03:46:28.209Z,101375.89
2023-01-29T03:49:38.252Z,101375.89
2023-01-29T03:54:31.050Z,101369.47
2023-01-29T03:59:34.924Z,101362.27
2023-01-29T04:04:26.543Z,101361.6
2023-01-29T04:09:29.883Z,101357.98999999999
2023-01-29T04:14:24.520Z,101357.19
2023-01-29T04:15:25.291Z,101357.19
2023-01-29T04:19:24.240Z,101358.59
2023-01-29T04:20:58.877Z,101358.59
2023-01-29T04:24:23.410Z,101346.59
2023-01-29T04:29:37.200Z,101340.20000000001
2023-01-29T04:34:28.158Z,101340.88
2023-01-29T04:39:29.747Z,101343.04
2023-01-29T04:44:32.773Z,101334.44
2023-01-29T04:46:18.156Z,101335.86
2023-01-29T04:49:31.630Z,101335.86
2023-01-29T04:49:46.076Z,101335.86
2023-01-29T04:54:31.403Z,101325.31
2023-01-29T04:59:30.169Z,101317.4
2023-01-29T05:04:26.126Z,101316.0
2023-01-29T05:09:24.909Z,101316.92
2023-01-29T05:09:37.281Z,101316.92
2023-01-29T05:14:07.995Z,101323.94
2023-01-29T05:14:25.106Z,101323.94
2023-01-29T05:19:23.408Z,101321.36
2023-01-29T05:20:34.205Z,101321.36
2023-01-29T05:24:25.468Z,101322.5
2023-01-29T05:29:23.965Z,101316.16
2023-01-29T05:31:59.854Z,101309.77
2023-01-29T05:34:23.291Z,101309.77
2023-01-29T05:39:23.405Z,101302.70000000001
2023-01-29T05:44:23.612Z,101284.55
2023-01-29T05:49:23.347Z,101289.86
2023-01-29T05:54:23.313Z,101291.41
2023-01-29T05:59:23.706Z,101283.24
2023-01-29T06:04:23.516Z,101284.34999999999
2023-01-29T06:09:23.576Z,101292.36
2023-01-29T06:14:23.471Z,101292.03
2023-01-29T06:15:14.495Z,101292.03
2023-01-29T06:19:23.228Z,101295.36
2023-01-29T06:21:27.423Z,101283.09000000001
2023-01-29T06:24:23.391Z,101283.09000000001
2023-01-29T06:27:49.556Z,101295.62
2023-01-29T06:29:23.249Z,101295.62
2023-01-29T06:29:29.263Z,101295.62
2023-01-29T06:34:23.325Z,101289.85
2023-01-29T06:39:23.646Z,101284.09
2023-01-29T06:42:42.100Z,101297.17000000001
2023-01-29T06:44:23.232Z,101297.17000000001
2023-01-29T06:49:23.373Z,101290.31
2023-01-29T06:52:35.214Z,101290.06000000001
2023-01-29T06:54:23.224Z,101290.06000000001
2023-01-29T06:54:45.173Z,101290.06000000001
2023-01-29T06:59:23.429Z,101288.17
2023-01-29T07:04:23.427Z,101294.48
2023-01-29T07:09:23.340Z,101282.14
2023-01-29T07:10:32.168Z,101282.14
2023-01-29T07:14:23.183Z,101267.48999999999
2023-01-29T07:19:23.509Z,101267.88
2023-01-29T07:24:18.157Z,101270.67
2023-01-29T07:24:23.775Z,101270.67
2023-01-29T07:25:49.376Z,101270.67
2023-01-29T07:29:23.315Z,101266.81999999999
2023-01-29T07:34:23.633Z,101277.15
2023-01-29T07:39:23.286Z,101290.75
2023-01-29T07:44:23.538Z,101288.7
2023-01-29T07:46:18.272Z,101298.15999999999
2023-01-29T07:49:23.221Z,101298.15999999999
2023-01-29T07:54:23.416Z,101286.84
2023-01-29T07:57:55.237Z,101279.07
2023-01-29T07:59:23.351Z,101279.07
2023-01-29T08:04:23.343Z,101264.18
2023-01-29T08:06:54.866Z,101269.75
2023-01-29T08:09:23.564Z,101269.75
2023-01-29T08:14:23.196Z,101275.76000000001
2023-01-29T08:19:23.354Z,101257.47
2023-01-29T08:23:23.324Z,101247.27
2023-01-29T08:24:28.229Z,101247.27
2023-01-29T08:26:10.029Z,101247.27
2023-01-29T08:29:23.233Z,101251.45
2023-01-29T08:29:49.096Z,101251.45
2023-01-29T08:34:23.780Z,101255.76
2023-01-29T08:39:23.294Z,101265.44
2023-01-29T08:44:23.299Z,101268.47
2023-01-29T08:49:23.708Z,101261.19
2023-01-29T08:51:19.004Z,101249.5
2023-01-29T08:54:23.319Z,101249.5
2023-01-29T08:59:23.350Z,101247.81
2023-01-29T09:04:23.753Z,101241.24
2023-01-29T09:09:23.398Z,101239.78
2023-01-29T09:14:23.179Z,101232.65
2023-01-29T09:19:23.709Z,101223.71
2023-01-29T09:19:24.237Z,101223.71
2023-01-29T09:21:26.908Z,101225.08
2023-01-29T09:24:23.079Z,101225.08
2023-01-29T09:25:28.970Z,101225.08
2023-01-29T09:29:23.074Z,101220.81
2023-01-29T09:33:53.945Z,101216.24
2023-01-29T09:34:24.867Z,101216.24
2023-01-29T09:39:23.170Z,101214.15
2023-01-29T09:40:34.549Z,101214.15
2023-01-29T09:44:31.613Z,101220.83
2023-01-29T09:49:28.454Z,101198.20999999999
2023-01-29T09:54:26.385Z,101198.63
2023-01-29T09:59:26.370Z,101183.28
2023-01-29T10:02:03.617Z,101192.29000000001
2023-01-29T10:04:42.999Z,101192.29000000001
2023-01-29T10:08:35.535Z,101183.86
2023-01-29T10:09:40.882Z,101183.86
2023-01-29T10:14:36.791Z,101173.49
2023-01-29T10:19:42.262Z,101179.63
2023-01-29T10:20:13.882Z,101179.63
2023-01-29T10:24:34.518Z,101160.72
2023-01-29T10:25:12.878Z,101160.72
2023-01-29T10:29:25.777Z,101161.76000000001
2023-01-29T10:34:28.290Z,101165.36
2023-01-29T10:39:25.506Z,101169.84
2023-01-29T10:44:39.951Z,101161.56
2023-01-29T10:47:30.276Z,101148.42
2023-01-29T10:49:36.712Z,101148.42
2023-01-29T10:54:35.248Z,101160.65999999999
2023-01-29T10:57:33.999Z,101150.41
2023-01-29T10:59:36.520Z,101150.41
2023-01-29T11:04:24.715Z,101135.96
2023-01-29T11:14:29.140Z,101131.95
2023-01-29T11:19:36.191Z,101127.42
2023-01-29T11:22:26.906Z,101111.65999999999
2023-01-29T11:24:23.837Z,101111.65999999999
2023-01-29T11:26:46.267Z,101100.56
2023-01-29T11:29:32.042Z,101100.56
2023-01-29T11:34:26.661Z,101082.28
2023-01-29T11:39:24.943Z,101064.18
2023-01-29T11:44:28.514Z,101061.37999999999
2023-01-29T11:49:33.841Z,101040.66
2023-01-29T11:49:51.769Z,101040.66
2023-01-29T11:54:28.596Z,101043.07
2023-01-29T11:56:41.565Z,101038.72
2023-01-29T11:59:30.560Z,101038.72
2023-01-29T12:04:25.412Z,101038.22
2023-01-29T12:09:27.267Z,101028.87
2023-01-29T12:14:28.183Z,101027.53
2023-01-29T12:19:29.760Z,101013.23
2023-01-29T12:22:47.851Z,100999.84
2023-01-29T12:24:31.352Z,100999.84
2023-01-29T12:29:32.471Z,100996.39
2023-01-29T12:31:35.612Z,101000.61
2023-01-29T12:34:28.665Z,101000.61
2023-01-29T12:39:23.360Z,100999.7
2023-01-29T12:42:40.598Z,100983.75
2023-01-29T12:44:29.349Z,100983.75
2023-01-29T12:49:26.968Z,100987.62000000001
2023-01-29T12:54:30.183Z,100971.12
2023-01-29T12:58:23.313Z,100967.6
2023-01-29T12:59:29.211Z,100967.6
2023-01-29T13:01:15.975Z,100962.51999999999
2023-01-29T13:03:07.297Z,100962.51999999999
2023-01-29T13:04:31.271Z,100962.51999999999
2023-01-29T13:06:18.001Z,100974.84
2023-01-29T13:09:28.875Z,100974.84
2023-01-29T13:14:27.847Z,100979.13
2023-01-29T13:15:38.629Z,100979.13
2023-01-29T13:18:40.466Z,100982.62
2023-01-29T13:19:27.779Z,100982.62
2023-01-29T13:24:25.160Z,100983.33
2023-01-29T13:29:30.744Z,100976.37
2023-01-29T13:32:00.020Z,100971.89
2023-01-29T13:34:27.449Z,100971.89
2023-01-29T13:37:57.994Z,100966.53
2023-01-29T13:39:26.518Z,100966.53
2023-01-29T13:40:20.169Z,100966.53
2023-01-29T13:42:53.157Z,100963.4
2023-01-29T13:44:26.100Z,100963.4
2023-01-29T13:49:27.159Z,100933.39
2023-01-29T13:53:36.952Z,100939.26
2023-01-29T13:54:25.988Z,100939.26
2023-01-29T13:59:33.996Z,100944.45
2023-01-29T14:04:25.779Z,100947.08
2023-01-29T14:09:31.935Z,100956.97
2023-01-29T14:12:35.421Z,100963.58
2023-01-29T14:14:42.864Z,100963.58
2023-01-29T14:19:23.478Z,100979.76999999999
2023-01-29T14:24:29.919Z,100983.65
2023-01-29T14:26:48.819Z,100970.9
2023-01-29T14:29:34.277Z,100970.9
2023-01-29T14:30:05.417Z,100970.9
2023-01-29T14:34:28.437Z,100964.47
2023-01-29T14:37:58.717Z,100964.54
2023-01-29T14:39:32.059Z,100964.54
2023-01-29T14:42:23.793Z,100951.81
2023-01-29T14:44:42.718Z,100951.81
2023-01-29T14:45:27.396Z,100951.81
2023-01-29T14:48:56.468Z,100946.34
2023-01-29T14:49:47.248Z,100946.34
2023-01-29T14:54:01.739Z,100931.2
2023-01-29T14:54:27.309Z,100931.2
2023-01-29T14:59:28.123Z,100935.55
2023-01-29T15:00:20.489Z,100935.55
2023-01-29T15:02:44.235Z,100953.66
2023-01-29T15:03:18.011Z,100953.66
2023-01-29T15:04:26.576Z,100953.66
2023-01-29T15:14:28.215Z,100935.17
2023-01-29T15:17:05.028Z,100918.91
2023-01-29T15:19:28.621Z,100918.91
2023-01-29T15:24:22.918Z,100921.08
2023-01-29T15:27:22.803Z,100911.35
2023-01-29T15:29:26.069Z,100911.35
2023-01-29T15:34:23.167Z,100902.62
2023-01-29T15:39:24.271Z,100902.78
2023-01-29T15:40:14.583Z,100902.78
2023-01-29T15:42:48.752Z,100901.09
2023-01-29T15:44:22.988Z,100901.09
2023-01-29T15:48:28.720Z,100902.22
2023-01-29T15:49:28.691Z,100902.22
2023-01-29T15:54:23.894Z,100894.08
2023-01-29T15:59:25.412Z,100888.87
2023-01-29T16:01:37.820Z,100883.54000000001
2023-01-29T16:04:27.825Z,100883.54000000001
2023-01-29T16:04:42.140Z,100883.54000000001
2023-01-29T16:07:56.992Z,100884.2
2023-01-29T16:09:25.489Z,100884.2
2023-01-29T16:09:39.257Z,100884.2
2023-01-29T16:13:18.976Z,100892.89
2023-01-29T16:14:24.663Z,100892.89
2023-01-29T16:19:25.536Z,100895.2
2023-01-29T16:23:30.311Z,100898.6
2023-01-29T16:24:23.991Z,100898.6
2023-01-29T16:29:27.842Z,100897.85
2023-01-29T16:34:25.766Z,100896.88
2023-01-29T16:39:26.267Z,100901.79000000001
2023-01-29T16:41:35.666Z,100899.87999999999
2023-01-29T16:44:32.282Z,100899.87999999999
2023-01-29T16:49:42.580Z,100909.45
2023-01-29T16:49:52.579Z,100909.45
2023-01-29T16:49:54.899Z,100909.45
2023-01-29T16:52:15.423Z,100911.81
2023-01-29T16:54:24.480Z,100911.81
2023-01-29T16:59:31.267Z,100902.75
2023-01-29T17:04:23.190Z,100902.89
2023-01-29T17:09:26.927Z,100887.86
2023-01-29T17:14:24.908Z,100872.52
2023-01-29T17:19:24.441Z,100869.17
2023-01-29T17:21:45.765Z,100869.87000000001
2023-01-29T17:24:22.923Z,100869.87000000001
2023-01-29T17:29:28.064Z,100855.74
2023-01-29T17:32:57.652Z,100854.94
2023-01-29T17:34:23.133Z,100854.94
2023-01-29T17:34:30.457Z,100854.94
2023-01-29T17:39:24.736Z,100844.23000000001
2023-01-29T17:44:25.291Z,100830.97
2023-01-29T17:49:24.774Z,100825.44
2023-01-29T17:51:23.406Z,100818.20999999999
2023-01-29T17:54:24.615Z,100818.20999999999
2023-01-29T17:59:22.528Z,100800.34000000001
2023-01-29T17:59:27.465Z,100800.34000000001
2023-01-29T18:04:22.823Z,100797.48
2023-01-29T18:09:23.694Z,100784.79999999999
2023-01-29T18:11:53.018Z,100765.12
2023-01-29T18:13:54.208Z,100765.12
2023-01-29T18:14:22.816Z,100765.12
2023-01-29T18:19:26.375Z,100752.37
2023-01-29T18:24:25.422Z,100747.51
2023-01-29T18:29:28.454Z,100758.91
2023-01-29T18:30:53.871Z,100758.91
2023-01-29T18:34:22.658Z,100752.04
2023-01-29T18:39:22.794Z,100750.53
2023-01-29T18:44:22.671Z,100752.75
2023-01-29T18:49:22.654Z,100753.09999999999
2023-01-29T18:54:23.086Z,100752.81999999999
2023-01-29T18:58:29.008Z,100745.23000000001
2023-01-29T18:59:05.593Z,100745.23000000001
2023-01-29T18:59:22.612Z,100745.23000000001
2023-01-29T19:04:22.718Z,100734.70999999999
2023-01-29T19:09:22.904Z,100732.65
2023-01-29T19:14:22.602Z,100734.78
2023-01-29T19:19:22.872Z,100730.22
2023-01-29T19:24:23.367Z,100732.3
2023-01-29T19:29:22.686Z,100714.9
2023-01-29T19:31:33.894Z,100707.70999999999
2023-01-29T19:33:11.700Z,100707.70999999999
2023-01-29T19:34:23.145Z,100707.70999999999
2023-01-29T19:34:29.185Z,100707.70999999999
2023-01-29T19:39:22.862Z,100705.0
2023-01-29T19:44:22.548Z,100695.61
2023-01-29T19:45:49.856Z,100695.61
2023-01-29T19:49:22.604Z,100692.72
2023-01-29T19:51:09.302Z,100692.72
2023-01-29T19:54:22.510Z,100697.83
2023-01-29T19:55:03.349Z,100697.83
2023-01-29T19:59:22.871Z,100690.97
2023-01-29T20:04:22.828Z,100681.97
2023-01-29T20:09:22.614Z,100679.24
2023-01-29T20:14:22.547Z,100659.54000000001
2023-01-29T20:19:22.658Z,100657.65
2023-01-29T20:22:28.840Z,100657.11
2023-01-29T20:24:23.327Z,100657.11
2023-01-29T20:26:47.737Z,100642.62999999999
2023-01-29T20:29:22.609Z,100642.62999999999
2023-01-29T20:34:24.646Z,100639.61
2023-01-29T20:39:22.880Z,100626.72
2023-01-29T20:44:22.762Z,100612.07
2023-01-29T20:49:22.892Z,100595.81
2023-01-29T20:54:22.740Z,100599.54000000001
2023-01-29T20:59:23.318Z,100592.90999999999
2023-01-29T21:04:22.778Z,100587.61
2023-01-29T21:09:22.991Z,100582.59000000001
2023-01-29T21:14:22.649Z,100575.72
2023-01-29T21:19:23.179Z,100582.95000000001
2023-01-29T21:24:22.532Z,100571.68000000001
2023-01-29T21:29:22.567Z,100577.85
2023-01-29T21:34:23.103Z,100573.41
2023-01-29T21:35:25.199Z,100573.41
2023-01-29T21:39:23.818Z,100564.56
2023-01-29T21:44:22.452Z,100558.67
2023-01-29T21:49:23.481Z,100558.42
2023-01-29T21:51:33.235Z,100551.73
2023-01-29T21:54:22.489Z,100551.73
2023-01-29T21:59:03.554Z,100536.33
2023-01-29T21:59:23.077Z,100536.33
2023-01-29T22:04:22.875Z,100533.7
2023-01-29T22:09:22.510Z,100514.06
2023-01-29T22:14:22.494Z,100515.7
2023-01-29T22:19:24.240Z,100507.65
2023-01-29T22:24:22.620Z,100487.28
2023-01-29T22:29:22.627Z,100479.06
2023-01-29T22:34:22.941Z,100462.59
2023-01-29T22:38:34.390Z,100461.3
2023-01-29T22:39:24.915Z,100461.3
2023-01-29T22:41:18.416Z,100445.87
2023-01-29T22:44:22.409Z,100445.87
2023-01-29T22:47:50.655Z,100430.21
2023-01-29T22:49:24.183Z,100430.21
2023-01-29T22:50:52.687Z,100430.21
2023-01-29T22:53:21.566Z,100414.53
2023-01-29T22:54:22.380Z,100414.53
2023-01-29T22:54:35.635Z,100414.53
2023-01-29T22:59:22.721Z,100399.87999999999
2023-01-29T23:04:22.584Z,100394.93
2023-01-29T23:09:22.870Z,100375.59
2023-01-29T23:09:45.477Z,100375.59
2023-01-29T23:12:07.135Z,100366.29000000001
2023-01-29T23:14:22.921Z,100366.29000000001
2023-01-29T23:16:43.749Z,100354.94
2023-01-29T23:19:22.479Z,100354.94
2023-01-29T23:24:22.836Z,100356.59000000001
2023-01-29T23:29:22.420Z,100358.54000000001
2023-01-29T23:34:22.555Z,100350.94
2023-01-29T23:38:57.699Z,100338.59
2023-01-29T23:39:22.622Z,100338.59
2023-01-29T23:40:57.166Z,100338.59
2023-01-29T23:44:22.570Z,100330.94
2023-01-29T23:49:22.809Z,100318.37000000001
2023-01-29T23:54:22.493Z,100312.61
2023-01-29T23:59:22.369Z,100311.27
